ロサンゼルス の空港の天気 - METARとTAF

ロサンゼルス国際空港 ( KLAX / LAX ) - アメリカ カリフォルニア州ロサンゼルス
飛行場実況気象(Metar)
観測時間01/22 17:31 PST (01/23 01:31 UTC)
風向・風速西南西 7m/s
視程10km以上
天気現象
全天の8割程度の雲 雲底高度 700m
全天の8割程度の雲 雲底高度 850m
全天の8割程度の雲 雲底高度 2130m
気温13.3℃
湿度69%
気圧1014hPa
METARKLAX 230131Z 25014KT 10SM BKN023 BKN028 BKN070 13/08 A2994 RMK AO2 T01330078
過去の天気等 Google飛行場航空写真 Wunderground天気予報

過去48時間のMETAR

飛行場予報(TAF)
発表時間: 1/22 17:40 PST (1/23 01:40 UTC)
予報対象時間: 22日18時 PST ~ 23日22時 PST
風向・風速西南西 8m/s
視程10km以上
天気現象周辺でしゅう雨
少しの雲 雲底高度 460m
全天の8割程度の雲 雲底高度 760m
全天の8割程度の雲 雲底高度 2130m
22日19時 PST から
風向・風速西 5m/s
視程4830m
天気現象弱い雨 もや
全天の8割程度の雲 雲底高度 370m
全天を覆う雲 雲底高度 760m
22日21時 PST から
風向・風速西 6m/s
視程10km以上
天気現象弱いしゅう雨
全天を覆う雲 雲底高度 760m
23日0時 PST から
風向・風速西 8m/s
視程10km以上
天気現象周辺でしゅう雨
全天の8割程度の雲 雲底高度 760m
23日6時 PST から
風向・風速西北西 4m/s
視程10km以上
天気現象周辺でしゅう雨
全天の8割程度の雲 雲底高度 1070m
23日12時 PST から
風向・風速西南西 5m/s
視程10km以上
天気現象弱いしゅう雨
全天を覆う雲 雲底高度 1520m
23日18時 PST から
風向・風速西北西 3m/s
視程10km以上
全天を覆う雲 雲底高度 3050m
KLAX 230140Z 2302/2406 24015KT P6SM VCSH FEW015 BKN025 BKN070
FM230300 26010KT 3SM -RA BR BKN012 OVC025
FM230500 26012KT P6SM -SHRA OVC025
FM230800 27015KT P6SM VCSH BKN025
FM231400 30008KT P6SM VCSH BKN035
FM232000 25009KT P6SM -SHRA OVC050
FM240200 30005KT P6SM OVC100